createdAt,value
2022-08-26T00:00:53.242Z,23.06
2022-08-26T00:03:23.232Z,23.06
2022-08-26T00:05:54.452Z,23.13
2022-08-26T00:08:22.898Z,23.06
2022-08-26T00:10:54.122Z,23.04
2022-08-26T00:13:22.384Z,22.96
2022-08-26T00:15:51.388Z,22.85
2022-08-26T00:18:22.286Z,22.76
2022-08-26T00:20:51.443Z,22.72
2022-08-26T00:23:20.026Z,22.68
2022-08-26T00:25:53.355Z,22.62
2022-08-26T00:28:22.102Z,22.71
2022-08-26T00:30:51.629Z,22.77
2022-08-26T00:33:20.858Z,22.82
2022-08-26T00:35:49.447Z,22.83
2022-08-26T00:38:22.182Z,22.88
2022-08-26T00:40:57.539Z,22.84
2022-08-26T00:43:26.801Z,22.80
2022-08-26T00:46:16.926Z,22.73
2022-08-26T00:48:49.959Z,22.75
2022-08-26T00:51:29.700Z,22.72
2022-08-26T00:54:10.714Z,22.73
2022-08-26T00:57:16.506Z,22.69
2022-08-26T00:59:53.093Z,22.66
2022-08-26T01:02:21.936Z,22.66
2022-08-26T01:04:58.053Z,22.71
2022-08-26T01:07:30.247Z,22.72
2022-08-26T01:10:02.892Z,22.72
2022-08-26T01:12:40.234Z,22.73
2022-08-26T01:15:13.700Z,22.75
2022-08-26T01:17:41.888Z,22.72
2022-08-26T01:20:47.986Z,22.75
2022-08-26T01:23:16.650Z,22.77
2022-08-26T01:25:50.761Z,22.82
2022-08-26T01:28:28.169Z,22.82
2022-08-26T01:30:57.942Z,22.80
2022-08-26T01:33:51.371Z,22.82
2022-08-26T01:36:20.237Z,22.92
2022-08-26T01:38:48.973Z,22.96
2022-08-26T01:41:19.952Z,23.06
2022-08-26T01:43:57.077Z,23.15
2022-08-26T01:46:29.699Z,23.23
2022-08-26T01:49:01.372Z,23.40
2022-08-26T01:51:31.500Z,23.51
2022-08-26T01:53:59.985Z,23.55
2022-08-26T01:56:33.064Z,23.60
2022-08-26T01:59:17.024Z,23.69
2022-08-26T02:01:46.147Z,23.71
2022-08-26T02:04:24.031Z,23.80
2022-08-26T02:06:53.608Z,23.82
2022-08-26T02:09:23.829Z,23.78
2022-08-26T02:11:54.097Z,23.74
2022-08-26T02:14:28.069Z,23.51
2022-08-26T02:17:00.934Z,23.28
2022-08-26T02:19:35.571Z,23.12
2022-08-26T02:22:14.298Z,22.97
2022-08-26T02:25:05.915Z,22.83
2022-08-26T02:27:39.906Z,22.80
2022-08-26T02:30:11.163Z,22.79
2022-08-26T02:32:41.299Z,22.84
2022-08-26T02:35:11.376Z,22.83
2022-08-26T02:37:41.836Z,22.75
2022-08-26T02:40:12.157Z,22.64
2022-08-26T02:42:40.323Z,22.60
2022-08-26T02:45:11.387Z,22.55
2022-08-26T02:47:40.448Z,22.56
2022-08-26T02:50:09.437Z,22.47
2022-08-26T02:52:38.163Z,22.44
2022-08-26T02:55:07.492Z,22.38
2022-08-26T02:57:38.323Z,22.30
2022-08-26T03:00:09.741Z,22.30
2022-08-26T03:02:37.876Z,22.36
2022-08-26T03:05:06.491Z,22.35
2022-08-26T03:07:34.645Z,22.36
2022-08-26T03:10:06.861Z,22.39
2022-08-26T03:12:37.127Z,22.35
2022-08-26T03:15:17.546Z,22.31
2022-08-26T03:17:50.322Z,22.35
2022-08-26T03:20:19.193Z,22.36
2022-08-26T03:22:47.814Z,22.38
2022-08-26T03:25:17.666Z,22.35
2022-08-26T03:27:45.944Z,22.10
2022-08-26T03:30:35.106Z,22.05
2022-08-26T03:33:04.501Z,22.07
2022-08-26T03:35:34.075Z,22.07
2022-08-26T03:38:03.338Z,21.92
2022-08-26T03:40:39.068Z,21.85
2022-08-26T03:43:13.040Z,21.87
2022-08-26T03:45:41.620Z,21.81
2022-08-26T03:48:11.482Z,21.77
2022-08-26T03:50:40.478Z,21.73
2022-08-26T03:53:12.862Z,21.73
2022-08-26T03:55:42.377Z,21.76
2022-08-26T03:58:11.580Z,21.76
2022-08-26T04:00:39.795Z,21.74
2022-08-26T04:03:10.013Z,21.71
2022-08-26T04:05:38.604Z,21.71
2022-08-26T04:08:07.268Z,21.68
2022-08-26T04:10:38.440Z,21.58
2022-08-26T04:13:06.806Z,21.57
2022-08-26T04:15:35.094Z,21.48
2022-08-26T04:18:03.360Z,21.30
2022-08-26T04:20:31.971Z,21.19
2022-08-26T04:23:00.470Z,21.13
2022-08-26T04:25:28.658Z,21.11
2022-08-26T04:27:56.990Z,21.09
2022-08-26T04:30:25.611Z,21.10
2022-08-26T04:32:53.843Z,21.14
2022-08-26T04:35:25.612Z,21.26
2022-08-26T04:37:54.428Z,21.39
2022-08-26T04:40:23.162Z,21.41
2022-08-26T04:42:51.816Z,21.36
2022-08-26T04:45:22.739Z,21.30
2022-08-26T04:47:57.117Z,21.30
2022-08-26T04:50:26.508Z,21.31
2022-08-26T04:52:55.464Z,21.37
2022-08-26T04:55:38.727Z,21.44
2022-08-26T04:58:11.090Z,21.51
2022-08-26T05:00:39.453Z,21.59
2022-08-26T05:03:10.360Z,21.64
2022-08-26T05:05:41.186Z,21.69
2022-08-26T05:08:12.082Z,21.69
2022-08-26T05:10:49.023Z,21.75
2022-08-26T05:13:20.579Z,21.81
2022-08-26T05:15:49.614Z,21.93
2022-08-26T05:18:21.320Z,22.02
2022-08-26T05:20:54.566Z,22.14
2022-08-26T05:23:27.108Z,22.23
2022-08-26T05:25:59.253Z,22.32
2022-08-26T05:28:30.621Z,22.32
2022-08-26T05:30:58.997Z,22.31
2022-08-26T05:33:27.382Z,22.26
2022-08-26T05:35:55.856Z,22.29
2022-08-26T05:38:25.092Z,22.39
2022-08-26T05:40:58.724Z,22.49
2022-08-26T05:43:29.061Z,22.71
2022-08-26T05:46:07.045Z,22.90
2022-08-26T05:48:35.315Z,23.10
2022-08-26T05:51:08.660Z,23.26
2022-08-26T05:53:38.687Z,23.38
2022-08-26T05:56:08.260Z,23.45
2022-08-26T05:58:37.970Z,23.35
2022-08-26T06:01:07.886Z,23.53
2022-08-26T06:03:40.296Z,23.56
2022-08-26T06:06:19.989Z,23.76
2022-08-26T06:08:49.163Z,23.98
2022-08-26T06:11:21.522Z,24.18
2022-08-26T06:13:54.089Z,24.40
2022-08-26T06:16:24.504Z,24.55
2022-08-26T06:18:53.913Z,24.73
2022-08-26T06:21:29.040Z,24.88
2022-08-26T06:24:18.729Z,25.25
2022-08-26T06:26:59.040Z,27.77
2022-08-26T06:29:28.282Z,30.63
2022-08-26T06:31:57.985Z,32.67
2022-08-26T06:34:29.930Z,33.86
2022-08-26T06:37:06.373Z,33.41
2022-08-26T06:39:35.164Z,32.66
2022-08-26T06:42:06.104Z,31.41
2022-08-26T06:44:35.599Z,30.69
2022-08-26T06:47:03.858Z,29.98
2022-08-26T06:49:32.804Z,29.38
2022-08-26T06:52:01.091Z,29.26
2022-08-26T06:54:31.558Z,29.34
2022-08-26T06:57:01.127Z,29.84
2022-08-26T06:59:31.188Z,29.87
2022-08-26T07:01:59.525Z,31.14
2022-08-26T07:04:28.127Z,31.98
2022-08-26T07:06:56.616Z,31.89
2022-08-26T07:09:35.294Z,31.71
2022-08-26T07:12:06.853Z,32.46
2022-08-26T07:14:35.799Z,33.26
2022-08-26T07:17:03.970Z,33.66
2022-08-26T07:19:32.157Z,33.70
2022-08-26T07:22:03.424Z,33.07
2022-08-26T07:24:35.127Z,33.09
2022-08-26T07:27:13.294Z,34.19
2022-08-26T07:29:45.227Z,35.22
2022-08-26T07:32:15.873Z,36.27
2022-08-26T07:34:44.820Z,35.93
2022-08-26T07:37:13.185Z,36.05
2022-08-26T07:39:43.168Z,35.50
2022-08-26T07:42:14.794Z,35.20
2022-08-26T07:44:43.573Z,34.70
2022-08-26T07:47:25.722Z,34.37
2022-08-26T07:49:57.407Z,34.18
2022-08-26T07:52:27.758Z,35.75
2022-08-26T07:55:01.707Z,36.76
2022-08-26T07:57:30.634Z,37.48
2022-08-26T07:59:59.747Z,38.03
2022-08-26T08:02:29.435Z,37.60
2022-08-26T08:05:01.580Z,37.52
2022-08-26T08:07:44.161Z,38.12
2022-08-26T08:10:18.803Z,37.40
2022-08-26T08:12:50.594Z,36.85
2022-08-26T08:15:21.236Z,36.68
2022-08-26T08:17:51.595Z,37.19
2022-08-26T08:20:20.881Z,37.51
2022-08-26T08:22:50.239Z,36.96
2022-08-26T08:25:20.739Z,36.09
2022-08-26T08:27:49.308Z,35.76
2022-08-26T08:30:22.884Z,35.26
2022-08-26T08:32:52.736Z,35.14
2022-08-26T08:35:22.615Z,34.80
2022-08-26T08:37:54.482Z,34.65
2022-08-26T08:40:25.371Z,33.81
2022-08-26T08:43:09.917Z,33.51
2022-08-26T08:45:51.023Z,33.58
2022-08-26T08:48:27.346Z,33.21
2022-08-26T08:51:35.270Z,33.83
2022-08-26T08:54:04.581Z,33.83
2022-08-26T08:56:45.755Z,33.88
2022-08-26T08:59:24.138Z,33.99
2022-08-26T09:01:54.079Z,33.71
2022-08-26T09:04:35.948Z,33.43
2022-08-26T09:07:08.825Z,33.39
2022-08-26T09:09:41.750Z,33.47
2022-08-26T09:12:29.901Z,33.60
2022-08-26T09:15:11.404Z,33.82
2022-08-26T09:17:55.179Z,34.20
2022-08-26T09:20:56.482Z,34.23
2022-08-26T09:23:26.220Z,33.81
2022-08-26T09:26:16.755Z,33.75
2022-08-26T09:29:02.301Z,33.45
2022-08-26T09:31:36.126Z,33.16
2022-08-26T09:34:17.990Z,32.96
2022-08-26T09:36:51.891Z,32.80
2022-08-26T09:39:31.896Z,32.91
2022-08-26T09:42:10.910Z,32.99
2022-08-26T09:45:08.401Z,32.70
2022-08-26T09:47:46.854Z,32.78
2022-08-26T09:50:27.085Z,32.89
2022-08-26T09:53:09.804Z,32.95
2022-08-26T09:55:43.426Z,32.83
2022-08-26T09:58:38.111Z,32.88
2022-08-26T10:01:09.476Z,32.88
2022-08-26T10:03:40.970Z,32.97
2022-08-26T10:06:21.189Z,32.50
2022-08-26T10:08:57.440Z,32.61
2022-08-26T10:11:47.866Z,32.48
2022-08-26T10:14:37.068Z,32.35
2022-08-26T10:17:14.892Z,32.02
2022-08-26T10:19:56.498Z,32.27
2022-08-26T10:22:51.458Z,32.47
2022-08-26T10:25:34.505Z,32.62
2022-08-26T10:28:05.981Z,32.88
2022-08-26T10:30:42.982Z,33.08
2022-08-26T10:33:15.422Z,33.27
2022-08-26T10:35:53.611Z,32.44
2022-08-26T10:38:32.032Z,32.53
2022-08-26T10:41:16.864Z,32.29
2022-08-26T10:44:08.353Z,32.83
2022-08-26T10:46:53.564Z,32.93
2022-08-26T10:49:22.207Z,33.11
2022-08-26T10:52:04.704Z,33.47
2022-08-26T10:55:08.430Z,33.67
2022-08-26T10:57:59.162Z,33.94
2022-08-26T11:01:10.172Z,34.18
2022-08-26T11:04:01.249Z,34.04
2022-08-26T11:06:31.395Z,33.92
2022-08-26T11:09:08.996Z,34.09
2022-08-26T11:11:39.920Z,33.86
2022-08-26T11:14:32.214Z,34.13
2022-08-26T11:17:11.749Z,34.32
2022-08-26T11:20:01.975Z,33.95
2022-08-26T11:22:36.331Z,33.89
2022-08-26T11:25:13.287Z,34.14
2022-08-26T11:27:41.632Z,34.36
2022-08-26T11:30:15.891Z,34.29
2022-08-26T11:32:56.297Z,34.18
2022-08-26T11:35:24.623Z,34.42
2022-08-26T11:38:18.433Z,34.62
2022-08-26T11:41:15.957Z,34.75
2022-08-26T11:43:45.807Z,34.58
2022-08-26T11:46:23.747Z,34.17
2022-08-26T11:49:01.683Z,34.49
2022-08-26T11:51:31.570Z,34.10
2022-08-26T11:54:30.760Z,34.35
2022-08-26T11:57:09.537Z,34.22
2022-08-26T11:59:42.347Z,34.82
2022-08-26T12:02:19.220Z,35.13
2022-08-26T12:04:51.023Z,35.10
2022-08-26T12:07:26.305Z,34.63
2022-08-26T12:10:00.592Z,34.95
2022-08-26T12:12:35.209Z,35.35
2022-08-26T12:15:18.920Z,35.54
2022-08-26T12:17:52.933Z,34.84
2022-08-26T12:20:46.554Z,34.95
2022-08-26T12:23:22.360Z,35.23
2022-08-26T12:26:01.862Z,35.42
2022-08-26T12:28:34.039Z,35.94
2022-08-26T12:31:05.979Z,36.44
2022-08-26T12:33:38.500Z,36.35
2022-08-26T12:36:07.069Z,35.94
2022-08-26T12:38:37.182Z,36.41
2022-08-26T12:41:05.659Z,36.57
2022-08-26T12:43:54.563Z,36.04
2022-08-26T12:46:29.163Z,36.17
2022-08-26T12:49:01.273Z,35.98
2022-08-26T12:51:32.464Z,35.66
2022-08-26T12:54:08.385Z,34.77
2022-08-26T12:56:39.601Z,34.50
2022-08-26T12:59:30.279Z,34.67
2022-08-26T13:01:58.583Z,34.73
2022-08-26T13:04:41.185Z,35.90
2022-08-26T13:07:25.933Z,36.29
2022-08-26T13:09:57.724Z,35.73
2022-08-26T13:12:37.256Z,35.74
2022-08-26T13:15:06.783Z,35.48
2022-08-26T13:17:36.060Z,35.64
2022-08-26T13:20:04.906Z,35.81
2022-08-26T13:22:33.576Z,36.00
2022-08-26T13:25:01.961Z,35.54
2022-08-26T13:27:30.656Z,34.50
2022-08-26T13:29:59.866Z,34.83
2022-08-26T13:32:28.653Z,35.08
2022-08-26T13:34:57.657Z,35.37
2022-08-26T13:37:35.301Z,35.71
2022-08-26T13:40:07.715Z,35.85
2022-08-26T13:42:49.556Z,36.03
2022-08-26T13:45:19.038Z,36.29
2022-08-26T13:47:47.412Z,36.50
2022-08-26T13:50:15.673Z,36.63
2022-08-26T13:52:43.862Z,36.63
2022-08-26T13:55:12.193Z,36.51
2022-08-26T13:57:40.387Z,36.05
2022-08-26T14:00:11.375Z,35.87
2022-08-26T14:02:39.974Z,35.84
2022-08-26T14:05:08.814Z,35.49
2022-08-26T14:07:37.107Z,35.65
2022-08-26T14:10:06.347Z,35.40
2022-08-26T14:12:34.963Z,35.12
2022-08-26T14:15:03.646Z,34.86
2022-08-26T14:17:32.617Z,34.61
2022-08-26T14:20:00.867Z,34.43
2022-08-26T14:22:29.132Z,34.30
2022-08-26T14:24:57.453Z,34.05
2022-08-26T14:27:25.802Z,34.14
2022-08-26T14:29:54.517Z,33.81
2022-08-26T14:32:28.728Z,33.80
2022-08-26T14:34:57.031Z,33.72
2022-08-26T14:37:25.753Z,33.48
2022-08-26T14:39:53.983Z,33.05
2022-08-26T14:42:27.640Z,32.90
2022-08-26T14:45:03.876Z,32.62
2022-08-26T14:47:32.474Z,32.54
2022-08-26T14:50:00.698Z,32.53
2022-08-26T14:52:51.967Z,32.64
2022-08-26T14:55:20.191Z,32.61
2022-08-26T14:57:48.590Z,32.60
2022-08-26T15:00:16.920Z,32.71
2022-08-26T15:02:45.700Z,32.84
2022-08-26T15:05:14.659Z,32.84
2022-08-26T15:07:42.884Z,32.81
2022-08-26T15:10:13.955Z,32.73
2022-08-26T15:12:43.034Z,32.63
2022-08-26T15:15:19.710Z,32.36
2022-08-26T15:17:48.018Z,31.93
2022-08-26T15:20:18.565Z,31.42
2022-08-26T15:22:46.826Z,31.29
2022-08-26T15:25:15.943Z,31.29
2022-08-26T15:27:47.124Z,31.42
2022-08-26T15:30:16.664Z,31.50
2022-08-26T15:32:44.938Z,31.54
2022-08-26T15:35:13.157Z,31.52
2022-08-26T15:37:41.469Z,31.46
2022-08-26T15:40:11.024Z,31.38
2022-08-26T15:42:39.423Z,31.29
2022-08-26T15:45:07.967Z,31.17
2022-08-26T15:48:00.628Z,31.24
2022-08-26T15:50:27.638Z,31.13
2022-08-26T15:52:56.650Z,31.01
2022-08-26T15:55:25.545Z,30.90
2022-08-26T15:57:54.042Z,30.80
2022-08-26T16:00:23.295Z,30.72
2022-08-26T16:02:51.513Z,30.78
2022-08-26T16:05:19.821Z,30.58
2022-08-26T16:07:48.664Z,30.42
2022-08-26T16:10:18.630Z,30.34
2022-08-26T16:12:46.812Z,30.34
2022-08-26T16:15:14.990Z,30.33
2022-08-26T16:17:43.196Z,30.24
2022-08-26T16:20:11.611Z,30.11
2022-08-26T16:22:40.133Z,29.97
2022-08-26T16:25:08.903Z,29.91
2022-08-26T16:27:37.159Z,29.92
2022-08-26T16:30:08.951Z,29.87
2022-08-26T16:32:37.120Z,29.75
2022-08-26T16:35:05.943Z,29.57
2022-08-26T16:37:36.505Z,29.42
2022-08-26T16:40:09.753Z,29.42
2022-08-26T16:42:38.774Z,29.38
2022-08-26T16:45:07.815Z,29.35
2022-08-26T16:47:36.139Z,29.31
2022-08-26T16:50:06.667Z,29.25
2022-08-26T16:52:38.080Z,29.17
2022-08-26T16:55:13.680Z,29.09
2022-08-26T16:57:43.623Z,29.01
2022-08-26T17:00:22.033Z,28.93
2022-08-26T17:02:50.252Z,28.89
2022-08-26T17:05:18.623Z,28.87
2022-08-26T17:07:47.388Z,28.84
2022-08-26T17:10:15.575Z,28.81
2022-08-26T17:12:43.898Z,28.84
2022-08-26T17:15:13.472Z,28.84
2022-08-26T17:17:42.086Z,28.80
2022-08-26T17:20:15.143Z,28.75
2022-08-26T17:22:47.369Z,28.66
2022-08-26T17:25:35.591Z,28.55
2022-08-26T17:28:04.029Z,28.50
2022-08-26T17:30:43.646Z,28.46
2022-08-26T17:33:11.832Z,28.43
2022-08-26T17:35:40.054Z,28.36
2022-08-26T17:38:08.795Z,28.31
2022-08-26T17:40:37.115Z,28.24
2022-08-26T17:43:10.354Z,28.15
2022-08-26T17:45:43.464Z,28.08
2022-08-26T17:48:12.369Z,28.00
2022-08-26T17:50:42.822Z,27.92
2022-08-26T17:53:18.454Z,27.86
2022-08-26T17:55:48.787Z,27.77
2022-08-26T17:58:21.493Z,27.71
2022-08-26T18:00:52.677Z,27.60
2022-08-26T18:03:20.938Z,27.49
2022-08-26T18:05:51.101Z,27.38
2022-08-26T18:08:20.063Z,27.26
2022-08-26T18:10:48.612Z,27.20
2022-08-26T18:13:16.932Z,27.15
2022-08-26T18:15:46.909Z,27.12
2022-08-26T18:18:16.170Z,27.03
2022-08-26T18:20:45.529Z,26.95
2022-08-26T18:23:14.007Z,26.87
2022-08-26T18:25:43.306Z,26.83
2022-08-26T18:28:13.043Z,26.76
2022-08-26T18:30:43.337Z,26.68
2022-08-26T18:33:12.183Z,26.58
2022-08-26T18:35:44.994Z,26.53
2022-08-26T18:38:14.329Z,26.43
2022-08-26T18:40:44.893Z,26.36
2022-08-26T18:43:13.189Z,26.29
2022-08-26T18:45:41.521Z,26.23
2022-08-26T18:48:09.802Z,26.20
2022-08-26T18:50:45.797Z,26.16
2022-08-26T18:53:15.682Z,26.12
2022-08-26T18:55:43.834Z,26.06
2022-08-26T18:58:12.155Z,26.03
2022-08-26T19:00:40.435Z,26.00
2022-08-26T19:03:18.539Z,26.01
2022-08-26T19:05:47.398Z,25.99
2022-08-26T19:08:17.378Z,25.95
2022-08-26T19:10:45.599Z,25.90
2022-08-26T19:13:14.011Z,25.84
2022-08-26T19:15:45.282Z,25.78
2022-08-26T19:18:15.082Z,25.71
2022-08-26T19:20:48.422Z,25.66
2022-08-26T19:23:34.105Z,25.61
2022-08-26T19:26:05.440Z,25.56
2022-08-26T19:28:34.442Z,25.56
2022-08-26T19:31:03.510Z,25.56
2022-08-26T19:33:31.893Z,25.55
2022-08-26T19:36:01.270Z,25.55
2022-08-26T19:38:31.118Z,25.56
2022-08-26T19:40:59.686Z,25.58
2022-08-26T19:43:28.295Z,25.57
2022-08-26T19:46:00.430Z,25.59
2022-08-26T19:48:29.146Z,25.56
2022-08-26T19:50:57.404Z,25.50
2022-08-26T19:53:25.579Z,25.44
2022-08-26T19:55:56.637Z,25.38
2022-08-26T19:58:25.012Z,25.31
2022-08-26T20:00:53.342Z,25.26
2022-08-26T20:03:22.494Z,25.23
2022-08-26T20:05:50.670Z,25.21
2022-08-26T20:08:22.107Z,25.17
2022-08-26T20:10:51.319Z,25.14
2022-08-26T20:13:19.585Z,25.11
2022-08-26T20:15:48.090Z,25.08
2022-08-26T20:18:34.737Z,25.06
2022-08-26T20:21:21.794Z,25.03
2022-08-26T20:23:50.593Z,25.03
2022-08-26T20:26:19.212Z,25.06
2022-08-26T20:28:47.455Z,25.05
2022-08-26T20:31:19.563Z,25.05
2022-08-26T20:33:48.290Z,25.07
2022-08-26T20:36:18.116Z,25.08
2022-08-26T20:38:46.856Z,25.03
2022-08-26T20:41:15.452Z,24.93
2022-08-26T20:43:43.989Z,24.81
2022-08-26T20:46:18.209Z,24.71
2022-08-26T20:48:49.076Z,24.70
2022-08-26T20:51:18.360Z,24.71
2022-08-26T20:53:49.748Z,24.74
2022-08-26T20:56:26.651Z,24.72
2022-08-26T20:58:58.764Z,24.73
2022-08-26T21:01:30.763Z,24.78
2022-08-26T21:03:59.043Z,24.78
2022-08-26T21:06:27.566Z,24.83
2022-08-26T21:08:57.072Z,24.81
2022-08-26T21:11:26.374Z,24.82
2022-08-26T21:14:07.032Z,24.79
2022-08-26T21:16:43.875Z,24.76
2022-08-26T21:19:14.785Z,24.74
2022-08-26T21:21:44.602Z,24.71
2022-08-26T21:24:13.425Z,24.66
2022-08-26T21:26:41.797Z,24.66
2022-08-26T21:29:10.222Z,24.62
2022-08-26T21:31:45.423Z,24.64
2022-08-26T21:34:18.821Z,24.66
2022-08-26T21:36:47.784Z,24.48
2022-08-26T21:39:16.859Z,24.38
2022-08-26T21:41:47.126Z,24.32
2022-08-26T21:44:17.054Z,24.26
2022-08-26T21:46:46.478Z,24.21
2022-08-26T21:49:16.020Z,24.15
2022-08-26T21:51:47.730Z,24.06
2022-08-26T21:54:18.083Z,24.03
2022-08-26T21:56:47.441Z,24.02
2022-08-26T21:59:17.808Z,24.07
2022-08-26T22:01:46.168Z,24.17
2022-08-26T22:04:15.092Z,24.23
2022-08-26T22:06:46.631Z,24.26
2022-08-26T22:09:17.577Z,24.20
2022-08-26T22:11:47.381Z,24.12
2022-08-26T22:14:22.058Z,23.96
2022-08-26T22:16:51.073Z,23.82
2022-08-26T22:19:20.838Z,23.75
2022-08-26T22:21:53.411Z,23.69
2022-08-26T22:24:24.086Z,23.67
2022-08-26T22:26:53.406Z,23.67
2022-08-26T22:29:25.569Z,23.67
2022-08-26T22:31:54.567Z,23.64
2022-08-26T22:34:23.299Z,23.61
2022-08-26T22:36:51.543Z,23.62
2022-08-26T22:39:25.543Z,23.64
2022-08-26T22:41:55.241Z,23.69
2022-08-26T22:44:26.689Z,23.69
2022-08-26T22:46:54.985Z,23.77
2022-08-26T22:49:23.774Z,23.83
2022-08-26T22:51:52.088Z,23.76
2022-08-26T22:54:20.454Z,23.69
2022-08-26T22:56:48.841Z,23.66
2022-08-26T22:59:17.065Z,23.61
2022-08-26T23:01:46.889Z,23.63
2022-08-26T23:04:15.337Z,23.59
2022-08-26T23:06:47.511Z,23.61
2022-08-26T23:09:18.411Z,23.72
2022-08-26T23:11:48.586Z,23.71
2022-08-26T23:14:18.724Z,23.70
2022-08-26T23:16:47.654Z,23.78
2022-08-26T23:19:17.979Z,23.93
2022-08-26T23:21:46.721Z,23.98
2022-08-26T23:24:17.331Z,23.94
2022-08-26T23:26:47.702Z,23.91
2022-08-26T23:29:16.155Z,23.80
2022-08-26T23:31:44.786Z,23.68
2022-08-26T23:34:33.133Z,23.60
2022-08-26T23:37:02.046Z,23.51
2022-08-26T23:39:33.829Z,23.42
2022-08-26T23:42:02.262Z,23.37
2022-08-26T23:44:31.464Z,23.32
2022-08-26T23:46:59.944Z,23.37
2022-08-26T23:49:28.941Z,23.41
2022-08-26T23:52:16.132Z,23.49
2022-08-26T23:54:44.393Z,23.54
2022-08-26T23:57:12.600Z,23.55
2022-08-26T23:59:41.603Z,23.55
